createdAt,value
2018-02-04T00:01:44.762Z,9.43
2018-02-04T00:04:11.319Z,9.55
2018-02-04T00:06:37.918Z,8.75
2018-02-04T00:09:04.597Z,8.50
2018-02-04T00:11:31.177Z,9.55
2018-02-04T00:13:58.134Z,8.98
2018-02-04T00:16:25.109Z,9.23
2018-02-04T00:18:51.664Z,9.45
2018-02-04T00:21:18.254Z,10.02
2018-02-04T00:23:44.851Z,9.00
2018-02-04T00:26:11.402Z,9.35
2018-02-04T00:28:37.995Z,8.38
2018-02-04T00:31:04.724Z,7.87
2018-02-04T00:33:31.277Z,8.80
2018-02-04T00:35:57.882Z,9.02
2018-02-04T00:38:24.918Z,9.68
2018-02-04T00:40:51.478Z,8.30
2018-02-04T00:43:18.441Z,8.13
2018-02-04T00:45:45.389Z,9.15
2018-02-04T00:48:12.314Z,8.85
2018-02-04T00:50:38.914Z,8.38
2018-02-04T00:53:05.497Z,8.10
2018-02-04T00:55:32.064Z,7.97
2018-02-04T00:57:58.650Z,9.80
2018-02-04T01:00:25.610Z,9.18
2018-02-04T01:02:52.554Z,8.65
2018-02-04T01:05:19.521Z,10.27
2018-02-04T01:07:46.486Z,10.75
2018-02-04T01:10:13.054Z,11.07
2018-02-04T01:12:39.675Z,11.00
2018-02-04T01:15:06.642Z,12.23
2018-02-04T01:17:33.198Z,11.25
2018-02-04T01:19:59.790Z,11.30
2018-02-04T01:22:26.418Z,11.95
2018-02-04T01:24:52.978Z,10.52
2018-02-04T01:27:19.586Z,12.82
2018-02-04T01:29:46.174Z,11.45
2018-02-04T01:32:12.709Z,10.02
2018-02-04T01:34:39.291Z,10.10
2018-02-04T01:37:05.886Z,10.88
2018-02-04T01:39:32.437Z,9.45
2018-02-04T01:41:59.026Z,11.40
2018-02-04T01:44:25.621Z,10.90
2018-02-04T01:46:52.170Z,10.70
2018-02-04T01:49:18.763Z,10.20
2018-02-04T01:51:45.354Z,12.48
2018-02-04T01:54:11.898Z,11.10
2018-02-04T01:56:38.475Z,11.50
2018-02-04T01:59:05.101Z,10.85
2018-02-04T02:01:31.655Z,11.23
2018-02-04T02:03:58.248Z,10.70
2018-02-04T02:06:24.854Z,12.05
2018-02-04T02:08:51.400Z,12.20
2018-02-04T02:11:18.111Z,11.75
2018-02-04T02:13:44.759Z,10.98
2018-02-04T02:16:11.309Z,9.30
2018-02-04T02:18:37.902Z,9.70
2018-02-04T02:21:04.514Z,10.13
2018-02-04T02:23:31.073Z,10.13
2018-02-04T02:25:57.660Z,10.82
2018-02-04T02:28:24.254Z,10.18
2018-02-04T02:30:50.820Z,9.18
2018-02-04T02:33:17.398Z,9.32
2018-02-04T02:35:43.974Z,9.00
2018-02-04T02:38:10.534Z,8.90
2018-02-04T02:40:37.509Z,9.40
2018-02-04T02:43:04.457Z,8.23
2018-02-04T02:45:31.454Z,8.38
2018-02-04T02:47:58.047Z,8.20
2018-02-04T02:50:24.650Z,7.68
2018-02-04T02:52:51.262Z,9.25
2018-02-04T02:55:18.225Z,8.75
2018-02-04T02:57:45.187Z,7.93
2018-02-04T03:00:11.741Z,8.63
2018-02-04T03:02:38.338Z,8.00
2018-02-04T03:05:04.922Z,8.27
2018-02-04T03:07:31.839Z,8.50
2018-02-04T03:09:58.414Z,7.82
2018-02-04T03:12:24.993Z,8.15
2018-02-04T03:14:51.583Z,8.20
2018-02-04T03:17:18.223Z,7.65
2018-02-04T03:19:45.241Z,7.72
2018-02-04T03:22:11.843Z,8.70
2018-02-04T03:24:38.426Z,8.25
2018-02-04T03:27:05.383Z,8.35
2018-02-04T03:29:32.331Z,8.20
2018-02-04T03:31:58.982Z,8.10
2018-02-04T03:34:25.959Z,7.78
2018-02-04T03:36:52.518Z,8.10
2018-02-04T03:39:19.105Z,8.45
2018-02-04T03:41:45.717Z,8.10
2018-02-04T03:44:12.281Z,6.53
2018-02-04T03:46:38.862Z,8.25
2018-02-04T03:49:05.441Z,7.95
2018-02-04T03:51:32.378Z,7.82
2018-02-04T03:53:59.445Z,8.48
2018-02-04T03:56:26.017Z,8.32
2018-02-04T03:58:52.570Z,8.05
2018-02-04T04:01:19.151Z,8.82
2018-02-04T04:03:45.795Z,8.30
2018-02-04T04:06:12.366Z,8.18
2018-02-04T04:08:38.969Z,8.13
2018-02-04T04:11:05.567Z,8.02
2018-02-04T04:13:32.512Z,8.65
2018-02-04T04:15:59.147Z,8.90
2018-02-04T04:18:25.785Z,8.27
2018-02-04T04:20:52.358Z,7.87
2018-02-04T04:23:18.949Z,7.97
2018-02-04T04:25:45.534Z,7.47
2018-02-04T04:28:12.078Z,9.10
2018-02-04T04:30:38.682Z,7.97
2018-02-04T04:33:05.649Z,8.55
2018-02-04T04:35:32.201Z,8.32
2018-02-04T04:37:58.821Z,8.90
2018-02-04T04:40:25.781Z,9.38
2018-02-04T04:42:52.703Z,7.78
2018-02-04T04:45:19.305Z,8.60
2018-02-04T04:47:45.901Z,8.98
2018-02-04T04:50:12.465Z,7.45
2018-02-04T04:52:39.098Z,8.90
2018-02-04T04:55:05.695Z,8.65
2018-02-04T04:57:32.249Z,7.97
2018-02-04T04:59:58.917Z,8.50
2018-02-04T05:02:25.487Z,8.40
2018-02-04T05:04:52.038Z,9.38
2018-02-04T05:07:18.630Z,8.02
2018-02-04T05:09:45.578Z,7.57
2018-02-04T05:12:12.506Z,7.75
2018-02-04T05:14:39.092Z,8.75
2018-02-04T05:17:05.726Z,8.02
2018-02-04T05:19:32.658Z,7.40
2018-02-04T05:21:59.327Z,7.45
2018-02-04T05:24:26.301Z,7.80
2018-02-04T05:26:53.279Z,7.90
2018-02-04T05:29:19.893Z,8.27
2018-02-04T05:31:46.841Z,8.00
2018-02-04T05:34:13.394Z,6.95
2018-02-04T05:36:40.046Z,8.32
2018-02-04T05:39:07.002Z,7.75
2018-02-04T05:41:33.578Z,7.00
2018-02-04T05:44:00.229Z,8.25
2018-02-04T05:46:26.858Z,7.47
2018-02-04T05:48:53.862Z,7.35
2018-02-04T05:51:20.441Z,9.55
2018-02-04T05:53:47.042Z,9.05
2018-02-04T05:56:13.621Z,7.53
2018-02-04T05:58:40.239Z,8.52
2018-02-04T06:01:06.845Z,10.13
2018-02-04T06:03:33.480Z,10.30
2018-02-04T06:06:00.048Z,8.85
2018-02-04T06:08:27.008Z,9.95
2018-02-04T06:10:53.917Z,8.93
2018-02-04T06:13:20.509Z,9.55
2018-02-04T06:15:47.484Z,9.10
2018-02-04T06:18:14.229Z,8.73
2018-02-04T06:20:41.228Z,9.77
2018-02-04T06:23:08.837Z,11.27
2018-02-04T06:25:35.424Z,12.93
2018-02-04T06:28:02.037Z,9.65
2018-02-04T06:30:28.629Z,9.38
2018-02-04T06:32:55.192Z,8.88
2018-02-04T06:35:21.796Z,9.50
2018-02-04T06:37:48.728Z,8.20
2018-02-04T06:40:15.289Z,8.80
2018-02-04T06:42:41.865Z,9.00
2018-02-04T06:45:08.441Z,9.27
2018-02-04T06:47:34.981Z,9.75
2018-02-04T06:50:01.545Z,8.60
2018-02-04T06:52:28.128Z,9.50
2018-02-04T06:54:55.033Z,11.77
2018-02-04T06:57:21.601Z,10.63
2018-02-04T06:59:48.181Z,11.02
2018-02-04T07:02:15.097Z,11.27
2018-02-04T07:04:41.713Z,10.68
2018-02-04T07:07:08.281Z,12.32
2018-02-04T07:09:34.814Z,12.80
2018-02-04T07:12:01.393Z,13.15
2018-02-04T07:14:27.953Z,13.85
2018-02-04T07:16:54.533Z,12.13
2018-02-04T07:19:21.121Z,12.43
2018-02-04T07:21:47.753Z,13.30
2018-02-04T07:24:21.637Z,13.77
2018-02-04T07:26:48.580Z,13.35
2018-02-04T07:29:15.169Z,14.50
2018-02-04T07:31:41.785Z,15.00
2018-02-04T07:34:08.390Z,13.23
2018-02-04T07:36:34.968Z,14.18
2018-02-04T07:39:01.541Z,17.48
2018-02-04T07:41:28.481Z,14.95
2018-02-04T07:43:55.026Z,15.18
2018-02-04T07:46:21.600Z,14.80
2018-02-04T07:48:48.205Z,14.48
2018-02-04T07:51:14.769Z,13.70
2018-02-04T07:53:41.727Z,14.60
2018-02-04T07:56:08.347Z,15.57
2018-02-04T07:58:34.952Z,15.68
2018-02-04T08:01:01.570Z,15.85
2018-02-04T08:03:28.602Z,16.33
2018-02-04T08:05:55.157Z,15.07
2018-02-04T08:08:21.732Z,10.73
2018-02-04T08:10:48.314Z,9.30
2018-02-04T08:13:14.865Z,8.55
2018-02-04T08:15:41.450Z,8.00
2018-02-04T08:18:08.064Z,8.55
2018-02-04T08:20:34.605Z,9.57
2018-02-04T08:23:01.201Z,9.70
2018-02-04T08:25:27.773Z,11.40
2018-02-04T08:27:54.677Z,11.40
2018-02-04T08:30:21.313Z,12.40
2018-02-04T08:32:47.913Z,11.65
2018-02-04T08:35:14.457Z,11.88
2018-02-04T08:37:41.085Z,13.15
2018-02-04T08:40:07.648Z,13.30
2018-02-04T08:42:34.193Z,11.12
2018-02-04T08:45:00.857Z,12.75
2018-02-04T08:47:27.817Z,12.48
2018-02-04T08:49:54.729Z,11.93
2018-02-04T08:52:28.173Z,12.82
2018-02-04T08:54:54.753Z,15.18
2018-02-04T08:57:21.297Z,13.43
2018-02-04T08:59:47.876Z,12.73
2018-02-04T09:02:14.453Z,13.55
2018-02-04T09:04:40.977Z,14.25
2018-02-04T09:07:07.554Z,12.40
2018-02-04T09:09:34.179Z,12.70
2018-02-04T09:12:00.713Z,10.70
2018-02-04T09:14:27.301Z,10.00
2018-02-04T09:16:53.880Z,11.02
2018-02-04T09:19:20.456Z,10.02
2018-02-04T09:21:47.041Z,8.07
2018-02-04T09:24:13.637Z,8.93
2018-02-04T09:26:40.169Z,7.75
2018-02-04T09:29:06.732Z,7.70
2018-02-04T09:31:33.313Z,9.45
2018-02-04T09:33:59.865Z,9.13
2018-02-04T09:36:26.489Z,9.75
2018-02-04T09:38:53.046Z,8.20
2018-02-04T09:41:19.581Z,7.93
2018-02-04T09:43:46.193Z,9.95
2018-02-04T09:46:13.174Z,9.32
2018-02-04T09:48:39.717Z,7.87
2018-02-04T09:51:06.294Z,8.27
2018-02-04T09:53:32.872Z,6.40
2018-02-04T09:55:59.422Z,6.37
2018-02-04T09:58:25.984Z,5.37
2018-02-04T10:00:52.946Z,6.12
2018-02-04T10:03:19.558Z,6.47
2018-02-04T10:05:46.142Z,7.40
2018-02-04T10:08:12.723Z,7.93
2018-02-04T10:10:39.287Z,6.35
2018-02-04T10:13:05.869Z,6.70
2018-02-04T10:15:32.809Z,6.07
2018-02-04T10:17:59.393Z,6.62
2018-02-04T10:20:26.056Z,8.50
2018-02-04T10:22:52.620Z,5.70
2018-02-04T10:25:19.204Z,7.75
2018-02-04T10:27:45.807Z,6.85
2018-02-04T10:30:12.407Z,7.95
2018-02-04T10:32:39.008Z,7.72
2018-02-04T10:35:05.593Z,8.68
2018-02-04T10:37:32.189Z,11.20
2018-02-04T10:39:58.733Z,8.55
2018-02-04T10:42:25.325Z,10.32
2018-02-04T10:44:51.893Z,10.48
2018-02-04T10:47:18.449Z,12.25
2018-02-04T10:49:45.397Z,11.65
2018-02-04T10:52:11.981Z,11.38
2018-02-04T10:54:38.524Z,10.30
2018-02-04T10:57:05.177Z,10.45
2018-02-04T10:59:31.849Z,12.02
2018-02-04T11:01:58.449Z,12.75
2018-02-04T11:04:25.585Z,9.70
2018-02-04T11:06:52.211Z,10.10
2018-02-04T11:09:18.793Z,11.40
2018-02-04T11:11:45.422Z,10.93
2018-02-04T11:14:12.074Z,10.20
2018-02-04T11:16:38.653Z,8.50
2018-02-04T11:19:05.635Z,7.90
2018-02-04T11:21:32.205Z,8.20
2018-02-04T11:23:58.862Z,8.45
2018-02-04T11:26:25.565Z,8.40
2018-02-04T11:28:52.161Z,8.20
2018-02-04T11:31:19.184Z,7.30
2018-02-04T11:33:45.777Z,7.25
2018-02-04T11:36:12.364Z,8.43
2018-02-04T11:38:39.301Z,8.27
2018-02-04T11:41:05.885Z,7.75
2018-02-04T11:43:32.497Z,7.82
2018-02-04T11:45:59.039Z,9.90
2018-02-04T11:48:25.617Z,9.10
2018-02-04T11:50:52.561Z,12.02
2018-02-04T11:53:19.521Z,11.75
2018-02-04T11:55:46.517Z,9.20
2018-02-04T11:58:13.089Z,10.30
2018-02-04T12:00:39.685Z,11.43
2018-02-04T12:03:06.277Z,11.07
2018-02-04T12:05:32.825Z,10.90
2018-02-04T12:07:59.396Z,12.50
2018-02-04T12:10:25.969Z,9.20
2018-02-04T12:12:52.928Z,10.45
2018-02-04T12:15:19.497Z,11.30
2018-02-04T12:17:46.037Z,7.35
2018-02-04T12:20:12.685Z,6.10
2018-02-04T12:22:39.210Z,7.60
2018-02-04T12:25:05.752Z,7.93
2018-02-04T12:27:32.329Z,7.40
2018-02-04T12:29:58.874Z,6.25
2018-02-04T12:32:25.525Z,6.20
2018-02-04T12:34:52.113Z,6.50
2018-02-04T12:37:18.673Z,6.93
2018-02-04T12:39:45.291Z,7.60
2018-02-04T12:42:11.881Z,6.68
2018-02-04T12:44:38.459Z,6.80
2018-02-04T12:47:05.097Z,6.43
2018-02-04T12:49:32.029Z,7.72
2018-02-04T12:51:58.626Z,8.85
2018-02-04T12:54:25.244Z,9.02
2018-02-04T12:56:57.159Z,8.05
2018-02-04T12:59:23.758Z,6.20
2018-02-04T13:01:50.329Z,6.37
2018-02-04T13:04:16.938Z,7.20
2018-02-04T13:06:43.526Z,7.35
2018-02-04T13:09:10.127Z,7.87
2018-02-04T13:11:37.085Z,7.70
2018-02-04T13:14:03.767Z,6.78
2018-02-04T13:16:30.313Z,6.80
2018-02-04T13:18:56.953Z,7.25
2018-02-04T13:21:23.537Z,7.20
2018-02-04T13:23:50.081Z,5.40
2018-02-04T13:26:16.653Z,5.90
2018-02-04T13:28:43.200Z,5.50
2018-02-04T13:31:09.797Z,5.30
2018-02-04T13:33:36.757Z,7.40
2018-02-04T13:36:03.407Z,8.23
2018-02-04T13:38:29.990Z,6.72
2018-02-04T13:40:56.533Z,7.10
2018-02-04T13:43:23.097Z,7.80
2018-02-04T13:45:49.725Z,8.50
2018-02-04T13:48:16.349Z,7.60
2018-02-04T13:50:42.954Z,7.07
2018-02-04T13:53:09.501Z,4.70
2018-02-04T13:55:36.117Z,6.95
2018-02-04T13:58:02.749Z,6.60
2018-02-04T14:00:29.357Z,5.07
2018-02-04T14:03:03.120Z,6.35
2018-02-04T14:05:29.661Z,7.25
2018-02-04T14:07:56.258Z,5.82
2018-02-04T14:10:22.905Z,4.70
2018-02-04T14:12:49.733Z,4.20
2018-02-04T14:15:18.175Z,5.32
2018-02-04T14:17:44.762Z,5.43
2018-02-04T14:20:12.055Z,4.45
2018-02-04T14:22:39.558Z,4.37
2018-02-04T14:25:06.106Z,4.65
2018-02-04T14:27:32.732Z,3.40
2018-02-04T14:30:01.026Z,4.85
2018-02-04T14:32:28.439Z,4.35
2018-02-04T14:34:57.382Z,4.68
2018-02-04T14:37:25.635Z,3.90
2018-02-04T14:39:53.672Z,3.83
2018-02-04T14:42:21.041Z,3.78
2018-02-04T14:44:48.231Z,3.28
2018-02-04T14:47:14.848Z,3.50
2018-02-04T14:49:41.826Z,6.12
2018-02-04T14:52:08.793Z,4.72
2018-02-04T14:54:35.386Z,4.85
2018-02-04T14:57:01.998Z,6.78
2018-02-04T14:59:28.572Z,5.35
2018-02-04T15:01:55.124Z,6.45
2018-02-04T15:04:21.693Z,5.95
2018-02-04T15:06:48.321Z,6.55
2018-02-04T15:09:14.891Z,5.55
2018-02-04T15:11:41.510Z,6.37
2018-02-04T15:14:08.088Z,6.45
2018-02-04T15:16:34.879Z,5.53
2018-02-04T15:19:01.602Z,5.18
2018-02-04T15:21:28.217Z,5.37
2018-02-04T15:23:54.943Z,5.10
2018-02-04T15:26:21.525Z,4.68
2018-02-04T15:28:48.088Z,6.37
2018-02-04T15:31:14.641Z,6.60
2018-02-04T15:33:41.316Z,9.32
2018-02-04T15:36:08.851Z,7.25
2018-02-04T15:38:35.500Z,6.28
2018-02-04T15:41:02.086Z,8.45
2018-02-04T15:43:29.021Z,7.18
2018-02-04T15:45:55.610Z,7.35
2018-02-04T15:48:22.221Z,7.30
2018-02-04T15:50:48.825Z,7.25
2018-02-04T15:53:15.398Z,7.78
2018-02-04T15:55:43.022Z,7.80
2018-02-04T15:58:09.597Z,8.75
2018-02-04T16:00:36.129Z,9.52
2018-02-04T16:03:02.732Z,9.30
2018-02-04T16:05:29.728Z,9.05
2018-02-04T16:07:56.369Z,9.35
2018-02-04T16:10:22.949Z,7.85
2018-02-04T16:12:49.534Z,7.82
2018-02-04T16:15:16.222Z,8.10
2018-02-04T16:17:43.833Z,8.05
2018-02-04T16:20:10.848Z,7.95
2018-02-04T16:22:37.446Z,9.68
2018-02-04T16:25:03.992Z,8.07
2018-02-04T16:27:30.567Z,9.30
2018-02-04T16:29:57.577Z,9.10
2018-02-04T16:32:24.235Z,8.60
2018-02-04T16:34:50.858Z,8.73
2018-02-04T16:37:17.434Z,8.95
2018-02-04T16:39:43.996Z,9.63
2018-02-04T16:42:10.577Z,9.77
2018-02-04T16:44:37.513Z,9.50
2018-02-04T16:47:04.053Z,11.73
2018-02-04T16:49:31.055Z,10.57
2018-02-04T16:51:57.639Z,10.98
2018-02-04T16:54:24.246Z,9.63
2018-02-04T16:56:50.875Z,9.90
2018-02-04T16:59:18.528Z,9.02
2018-02-04T17:01:45.309Z,9.15
2018-02-04T17:04:11.942Z,11.07
2018-02-04T17:06:38.550Z,9.95
2018-02-04T17:09:05.114Z,12.00
2018-02-04T17:14:04.801Z,9.07
2018-02-04T17:16:31.419Z,10.60
2018-02-04T17:18:58.388Z,10.68
2018-02-04T17:21:24.961Z,9.18
2018-02-04T17:23:51.949Z,26.95
2018-02-04T17:26:18.550Z,20.60
2018-02-04T17:28:45.456Z,14.45
2018-02-04T17:31:12.109Z,13.15
2018-02-04T17:33:38.709Z,14.55
2018-02-04T17:36:05.625Z,14.75
2018-02-04T17:38:32.271Z,15.55
2018-02-04T17:40:58.865Z,15.65
2018-02-04T17:43:25.494Z,13.88
2018-02-04T17:45:52.120Z,12.93
2018-02-04T17:48:18.709Z,13.90
2018-02-04T17:50:45.947Z,13.32
2018-02-04T17:53:12.576Z,13.25
2018-02-04T17:55:40.021Z,12.85
2018-02-04T17:58:06.654Z,13.13
2018-02-04T18:00:33.249Z,12.45
2018-02-04T18:02:59.833Z,12.23
2018-02-04T18:05:26.863Z,12.98
2018-02-04T18:07:53.465Z,11.95
2018-02-04T18:10:21.023Z,11.70
2018-02-04T18:12:47.589Z,12.65
2018-02-04T18:15:14.184Z,11.23
2018-02-04T18:17:41.118Z,12.10
2018-02-04T18:20:07.766Z,11.48
2018-02-04T18:22:34.349Z,11.75
2018-02-04T18:25:00.967Z,11.43
2018-02-04T18:27:27.594Z,12.70
2018-02-04T18:29:54.228Z,11.38
2018-02-04T18:32:20.804Z,12.60
2018-02-04T18:34:47.356Z,13.02
2018-02-04T18:37:14.010Z,13.43
2018-02-04T18:39:40.601Z,12.00
2018-02-04T18:42:07.674Z,10.98
2018-02-04T18:44:34.266Z,11.57
2018-02-04T18:47:01.469Z,10.27
2018-02-04T18:49:28.034Z,11.00
2018-02-04T18:51:54.633Z,11.55
2018-02-04T18:54:21.309Z,10.95
2018-02-04T18:56:47.934Z,9.43
2018-02-04T18:59:14.623Z,10.23
2018-02-04T19:01:42.026Z,9.50
2018-02-04T19:04:08.596Z,10.18
2018-02-04T19:06:35.203Z,10.65
2018-02-04T19:09:01.912Z,10.70
2018-02-04T19:11:28.854Z,10.20
2018-02-04T19:13:55.465Z,9.85
2018-02-04T19:16:22.434Z,10.45
2018-02-04T19:18:49.045Z,9.45
2018-02-04T19:21:15.806Z,10.02
2018-02-04T19:23:42.494Z,12.43
2018-02-04T19:26:09.154Z,16.77
2018-02-04T19:28:35.797Z,21.90
2018-02-04T19:31:02.406Z,20.05
2018-02-04T19:33:28.981Z,17.70
2018-02-04T19:35:56.318Z,12.10
2018-02-04T19:38:23.029Z,13.10
2018-02-04T19:40:50.593Z,13.32
2018-02-04T19:43:17.198Z,12.05
2018-02-04T19:45:43.809Z,11.45
2018-02-04T19:48:10.743Z,10.27
2018-02-04T19:50:37.330Z,11.88
2018-02-04T19:53:05.498Z,11.55
2018-02-04T19:55:32.557Z,14.48
2018-02-04T19:57:59.190Z,17.73
2018-02-04T20:00:25.821Z,18.35
2018-02-04T20:02:53.413Z,19.00
2018-02-04T20:05:20.199Z,14.13
2018-02-04T20:07:46.804Z,12.70
2018-02-04T20:10:13.405Z,11.40
2018-02-04T20:12:40.003Z,11.40
2018-02-04T20:15:07.481Z,12.18
2018-02-04T20:17:34.101Z,9.90
2018-02-04T20:20:01.289Z,11.40
2018-02-04T20:22:29.650Z,12.02
2018-02-04T20:24:56.205Z,12.30
2018-02-04T20:27:22.836Z,12.80
2018-02-04T20:29:49.424Z,12.52
2018-02-04T20:32:28.122Z,13.75
2018-02-04T20:34:54.734Z,12.88
2018-02-04T20:37:21.324Z,12.55
2018-02-04T20:39:48.029Z,13.60
2018-02-04T20:42:15.038Z,14.10
2018-02-04T20:44:41.616Z,13.62
2018-02-04T20:47:08.642Z,13.15
2018-02-04T20:49:35.289Z,14.80
2018-02-04T20:52:01.854Z,16.37
2018-02-04T20:54:28.490Z,18.60
2018-02-04T20:56:55.086Z,16.65
2018-02-04T20:59:22.106Z,14.27
2018-02-04T21:01:48.681Z,15.82
2018-02-04T21:04:15.653Z,15.27
2018-02-04T21:06:42.194Z,16.90
2018-02-04T21:09:09.206Z,15.27
2018-02-04T21:11:35.793Z,16.42
2018-02-04T21:14:02.722Z,19.95
2018-02-04T21:16:29.389Z,18.27
2018-02-04T21:18:56.340Z,18.45
2018-02-04T21:21:22.989Z,19.77
2018-02-04T21:23:49.626Z,21.35
2018-02-04T21:26:16.246Z,19.23
2018-02-04T21:28:42.818Z,17.42
2018-02-04T21:31:09.401Z,17.85
2018-02-04T21:33:36.009Z,16.48
2018-02-04T21:36:02.562Z,16.45
2018-02-04T21:38:29.149Z,16.52
2018-02-04T21:40:56.093Z,15.50
2018-02-04T21:43:23.015Z,18.60
2018-02-04T21:45:49.620Z,16.73
2018-02-04T21:48:16.229Z,18.37
2018-02-04T21:50:42.786Z,17.35
2018-02-04T21:53:09.420Z,18.10
2018-02-04T21:55:36.438Z,16.87
2018-02-04T21:58:03.042Z,16.95
2018-02-04T22:00:30.022Z,16.98
2018-02-04T22:02:56.998Z,16.73
2018-02-04T22:05:23.547Z,16.05
2018-02-04T22:07:50.167Z,17.37
2018-02-04T22:10:16.814Z,15.70
2018-02-04T22:12:43.389Z,16.05
2018-02-04T22:15:09.974Z,14.95
2018-02-04T22:17:36.549Z,17.25
2018-02-04T22:20:03.119Z,17.50
2018-02-04T22:22:30.094Z,15.85
2018-02-04T22:24:56.753Z,18.15
2018-02-04T22:27:23.301Z,16.80
2018-02-04T22:29:49.911Z,16.73
2018-02-04T22:32:16.502Z,17.20
2018-02-04T22:34:43.033Z,14.90
2018-02-04T22:37:09.609Z,14.02
2018-02-04T22:39:36.185Z,16.12
2018-02-04T22:42:02.789Z,16.55
2018-02-04T22:44:29.437Z,16.85
2018-02-04T22:46:56.054Z,16.73
2018-02-04T22:49:22.607Z,16.00
2018-02-04T22:51:49.272Z,16.05
2018-02-04T22:54:15.842Z,16.17
2018-02-04T22:56:42.422Z,15.65
2018-02-04T22:59:09.045Z,15.40
2018-02-04T23:01:35.653Z,15.80
2018-02-04T23:04:02.334Z,17.58
2018-02-04T23:06:28.900Z,16.12
2018-02-04T23:08:55.477Z,16.77
2018-02-04T23:11:22.384Z,16.23
2018-02-04T23:13:48.978Z,15.65
2018-02-04T23:16:15.925Z,18.23
2018-02-04T23:18:42.474Z,15.73
2018-02-04T23:21:09.092Z,17.98
2018-02-04T23:23:35.716Z,16.52
2018-02-04T23:26:02.261Z,15.48
2018-02-04T23:28:28.835Z,15.90
2018-02-04T23:30:55.400Z,15.70
2018-02-04T23:33:21.941Z,17.73
2018-02-04T23:35:48.573Z,16.77
2018-02-04T23:38:15.160Z,18.42
2018-02-04T23:40:42.083Z,19.02
2018-02-04T23:43:08.676Z,17.92
2018-02-04T23:45:35.282Z,18.00
2018-02-04T23:48:01.825Z,18.48
2018-02-04T23:50:28.388Z,18.12
2018-02-04T23:52:54.981Z,18.85
2018-02-04T23:55:21.541Z,20.55
2018-02-04T23:57:48.117Z,19.90
